createdAt,value
2019-04-14T00:00:14.863Z,969.77
2019-04-14T00:01:15.114Z,969.75
2019-04-14T00:02:14.918Z,969.76
2019-04-14T00:03:15.089Z,969.72
2019-04-14T00:04:16.086Z,969.78
2019-04-14T00:05:15.029Z,969.77
2019-04-14T00:06:15.891Z,969.74
2019-04-14T00:07:15.113Z,969.77
2019-04-14T00:08:15.493Z,969.73
2019-04-14T00:09:16.121Z,969.76
2019-04-14T00:10:16.108Z,969.74
2019-04-14T00:11:15.284Z,969.73
2019-04-14T00:12:16.427Z,969.70
2019-04-14T00:13:15.369Z,969.75
2019-04-14T00:14:16.373Z,969.73
2019-04-14T00:15:25.895Z,969.72
2019-04-14T00:16:16.379Z,969.72
2019-04-14T00:17:15.553Z,969.71
2019-04-14T00:18:16.439Z,969.68
2019-04-14T00:19:15.631Z,969.66
2019-04-14T00:20:16.401Z,969.66
2019-04-14T00:21:15.734Z,969.61
2019-04-14T00:22:16.271Z,969.60
2019-04-14T00:23:15.799Z,969.60
2019-04-14T00:24:16.264Z,969.60
2019-04-14T00:25:15.905Z,969.59
2019-04-14T00:26:16.223Z,969.58
2019-04-14T00:27:17.067Z,969.60
2019-04-14T00:28:16.359Z,969.63
2019-04-14T00:29:17.291Z,969.60
2019-04-14T00:30:16.493Z,969.54
2019-04-14T00:31:17.293Z,969.55
2019-04-14T00:32:16.303Z,969.58
2019-04-14T00:33:17.010Z,969.58
2019-04-14T00:34:16.270Z,969.60
2019-04-14T00:35:16.708Z,969.53
2019-04-14T00:36:17.512Z,969.59
2019-04-14T00:37:16.400Z,969.56
2019-04-14T00:38:17.458Z,969.60
2019-04-14T00:39:16.482Z,969.58
2019-04-14T00:40:17.250Z,969.59
2019-04-14T00:41:16.586Z,969.56
2019-04-14T00:42:16.977Z,969.58
2019-04-14T00:43:17.574Z,969.58
2019-04-14T00:44:16.767Z,969.59
2019-04-14T00:45:17.705Z,969.55
2019-04-14T00:46:16.833Z,969.53
2019-04-14T00:47:17.841Z,969.54
2019-04-14T00:48:19.345Z,969.57
2019-04-14T00:49:17.912Z,969.52
2019-04-14T00:50:16.973Z,969.55
2019-04-14T00:51:17.767Z,969.57
2019-04-14T00:52:17.073Z,969.59
2019-04-14T00:53:17.082Z,969.54
2019-04-14T00:54:17.508Z,969.58
2019-04-14T00:55:18.125Z,969.54
2019-04-14T00:56:17.270Z,969.54
2019-04-14T00:57:18.084Z,969.51
2019-04-14T00:58:17.299Z,969.53
2019-04-14T00:59:17.946Z,969.50
2019-04-14T01:00:18.909Z,969.49
2019-04-14T01:01:17.619Z,969.47
2019-04-14T01:02:17.467Z,969.47
2019-04-14T01:03:17.762Z,969.44
2019-04-14T01:04:18.515Z,969.45
2019-04-14T01:05:17.607Z,969.44
2019-04-14T01:06:18.516Z,969.41
2019-04-14T01:07:17.681Z,969.41
2019-04-14T01:08:18.515Z,969.43
2019-04-14T01:09:17.765Z,969.37
2019-04-14T01:10:17.809Z,969.33
2019-04-14T01:11:18.136Z,969.35
2019-04-14T01:12:19.125Z,969.32
2019-04-14T01:13:17.936Z,969.34
2019-04-14T01:14:18.973Z,969.32
2019-04-14T01:15:18.074Z,969.31
2019-04-14T01:16:21.666Z,969.28
2019-04-14T01:17:18.112Z,969.30
2019-04-14T01:18:18.952Z,969.28
2019-04-14T01:19:18.194Z,969.26
2019-04-14T01:20:18.912Z,969.25
2019-04-14T01:21:19.553Z,969.24
2019-04-14T01:22:18.398Z,969.22
2019-04-14T01:23:19.271Z,969.27
2019-04-14T01:24:18.573Z,969.24
2019-04-14T01:25:19.369Z,969.22
2019-04-14T01:26:18.597Z,969.21
2019-04-14T01:27:18.916Z,969.22
2019-04-14T01:28:18.577Z,969.23
2019-04-14T01:29:18.812Z,969.21
2019-04-14T01:30:19.771Z,969.22
2019-04-14T01:31:18.731Z,969.21
2019-04-14T01:32:19.669Z,969.22
2019-04-14T01:33:18.794Z,969.24
2019-04-14T01:34:19.518Z,969.23
2019-04-14T01:35:18.878Z,969.22
2019-04-14T01:36:19.198Z,969.25
2019-04-14T01:37:20.125Z,969.25
2019-04-14T01:38:19.074Z,969.27
2019-04-14T01:39:19.727Z,969.26
2019-04-14T01:40:19.090Z,969.22
2019-04-14T01:41:19.337Z,969.26
2019-04-14T01:42:20.230Z,969.24
2019-04-14T01:43:19.219Z,969.28
2019-04-14T01:44:19.905Z,969.24
2019-04-14T01:45:19.422Z,969.25
2019-04-14T01:46:25.785Z,969.28
2019-04-14T01:47:20.464Z,969.30
2019-04-14T01:48:19.436Z,969.27
2019-04-14T01:49:20.335Z,969.32
2019-04-14T01:50:19.518Z,969.30
2019-04-14T01:51:20.255Z,969.35
2019-04-14T01:52:20.938Z,969.31
2019-04-14T01:53:20.562Z,969.32
2019-04-14T01:54:19.691Z,969.31
2019-04-14T01:55:20.114Z,969.30
2019-04-14T01:56:20.671Z,969.34
2019-04-14T01:57:20.011Z,969.32
2019-04-14T01:58:20.774Z,969.33
2019-04-14T01:59:20.015Z,969.34
2019-04-14T02:00:20.784Z,969.35
2019-04-14T02:01:19.989Z,969.38
2019-04-14T02:02:20.545Z,969.38
2019-04-14T02:03:20.092Z,969.36
2019-04-14T02:04:20.364Z,969.39
2019-04-14T02:05:21.306Z,969.41
2019-04-14T02:06:20.322Z,969.42
2019-04-14T02:07:21.182Z,969.37
2019-04-14T02:08:20.310Z,969.38
2019-04-14T02:09:20.883Z,969.43
2019-04-14T02:10:21.558Z,969.39
2019-04-14T02:11:20.614Z,969.44
2019-04-14T02:12:21.427Z,969.42
2019-04-14T02:13:20.642Z,969.44
2019-04-14T02:14:21.191Z,969.42
2019-04-14T02:15:20.590Z,969.44
2019-04-14T02:16:29.164Z,969.39
2019-04-14T02:17:21.920Z,969.40
2019-04-14T02:18:20.927Z,969.42
2019-04-14T02:19:21.934Z,969.40
2019-04-14T02:20:20.868Z,969.41
2019-04-14T02:21:21.599Z,969.41
2019-04-14T02:22:20.883Z,969.43
2019-04-14T02:23:21.497Z,969.41
2019-04-14T02:24:21.992Z,969.40
2019-04-14T02:25:21.061Z,969.39
2019-04-14T02:26:22.021Z,969.42
2019-04-14T02:27:21.207Z,969.40
2019-04-14T02:28:22.028Z,969.41
2019-04-14T02:29:21.245Z,969.41
2019-04-14T02:30:26.251Z,969.44
2019-04-14T02:31:35.580Z,969.40
2019-04-14T02:32:53.234Z,969.36
2019-04-14T02:33:46.621Z,969.39
2019-04-14T02:34:49.434Z,969.40
2019-04-14T02:36:06.334Z,969.41
2019-04-14T02:36:46.203Z,969.42
2019-04-14T02:40:00.991Z,969.44
2019-04-14T02:40:56.080Z,969.42
2019-04-14T02:42:46.838Z,969.40
2019-04-14T02:43:54.603Z,969.36
2019-04-14T02:45:53.963Z,969.38
2019-04-14T02:48:53.274Z,969.33
2019-04-14T02:49:51.034Z,969.34
2019-04-14T02:50:48.109Z,969.34
2019-04-14T02:51:49.800Z,969.36
2019-04-14T02:53:50.113Z,969.38
2019-04-14T02:55:48.968Z,969.40
2019-04-14T02:57:47.680Z,969.40
2019-04-14T02:58:55.185Z,969.38
2019-04-14T02:59:49.773Z,969.39
2019-04-14T03:00:50.912Z,969.40
2019-04-14T03:01:59.552Z,969.41
2019-04-14T03:02:52.268Z,969.40
2019-04-14T03:03:48.927Z,969.41
2019-04-14T03:04:50.834Z,969.40
2019-04-14T03:05:53.716Z,969.46
2019-04-14T03:06:50.512Z,969.40
2019-04-14T03:08:50.822Z,969.44
2019-04-14T03:09:47.064Z,969.43
2019-04-14T03:10:48.188Z,969.45
2019-04-14T03:11:47.550Z,969.42
2019-04-14T03:12:55.257Z,969.44
2019-04-14T03:15:01.486Z,969.44
2019-04-14T03:15:58.914Z,969.47
2019-04-14T03:16:55.992Z,969.45
2019-04-14T03:18:52.464Z,969.41
2019-04-14T03:19:57.029Z,969.44
2019-04-14T03:20:49.958Z,969.38
2019-04-14T03:21:52.726Z,969.40
2019-04-14T03:23:53.353Z,969.40
2019-04-14T03:24:37.592Z,969.37
2019-04-14T03:25:41.475Z,969.37
2019-04-14T03:26:51.771Z,969.42
2019-04-14T03:28:44.198Z,969.44
2019-04-14T03:29:52.080Z,969.44
2019-04-14T03:31:08.542Z,969.46
2019-04-14T03:35:13.141Z,969.45
2019-04-14T03:36:40.522Z,969.43
2019-04-14T03:38:58.934Z,969.44
2019-04-14T03:40:10.119Z,969.43
2019-04-14T03:40:49.117Z,969.43
2019-04-14T03:42:55.602Z,969.35
2019-04-14T03:43:41.549Z,969.43
2019-04-14T03:44:49.585Z,969.41
2019-04-14T03:46:13.393Z,969.40
2019-04-14T03:46:53.384Z,969.41
2019-04-14T03:48:15.075Z,969.39
2019-04-14T03:50:56.518Z,969.40
2019-04-14T03:51:50.451Z,969.39
2019-04-14T03:53:47.259Z,969.37
2019-04-14T03:54:44.154Z,969.41
2019-04-14T03:55:34.805Z,969.36
2019-04-14T03:56:24.897Z,969.34
2019-04-14T03:57:27.107Z,969.37
2019-04-14T03:58:24.978Z,969.36
2019-04-14T03:59:26.011Z,969.33
2019-04-14T04:00:25.085Z,969.34
2019-04-14T04:01:25.803Z,969.31
2019-04-14T04:02:25.152Z,969.28
2019-04-14T04:03:26.055Z,969.30
2019-04-14T04:04:25.235Z,969.34
2019-04-14T04:05:25.993Z,969.37
2019-04-14T04:06:25.337Z,969.34
2019-04-14T04:07:25.692Z,969.33
2019-04-14T04:08:25.404Z,969.35
2019-04-14T04:09:25.744Z,969.30
2019-04-14T04:10:25.483Z,969.31
2019-04-14T04:11:25.779Z,969.34
2019-04-14T04:12:25.607Z,969.31
2019-04-14T04:13:25.948Z,969.29
2019-04-14T04:14:26.948Z,969.30
2019-04-14T04:15:25.698Z,969.29
2019-04-14T04:16:26.837Z,969.30
2019-04-14T04:17:25.791Z,969.33
2019-04-14T04:18:26.554Z,969.31
2019-04-14T04:19:25.869Z,969.29
2019-04-14T04:20:26.377Z,969.31
2019-04-14T04:21:26.899Z,969.33
2019-04-14T04:22:26.078Z,969.32
2019-04-14T04:23:26.983Z,969.34
2019-04-14T04:24:27.824Z,969.35
2019-04-14T04:25:26.872Z,969.33
2019-04-14T04:26:26.203Z,969.31
2019-04-14T04:27:26.578Z,969.31
2019-04-14T04:28:26.250Z,969.34
2019-04-14T04:29:26.605Z,969.34
2019-04-14T04:30:27.310Z,969.34
2019-04-14T04:31:26.496Z,969.33
2019-04-14T04:32:27.508Z,969.35
2019-04-14T04:33:26.480Z,969.36
2019-04-14T04:34:27.292Z,969.35
2019-04-14T04:35:26.589Z,969.36
2019-04-14T04:36:27.034Z,969.34
2019-04-14T04:37:27.715Z,969.34
2019-04-14T04:38:26.927Z,969.38
2019-04-14T04:39:27.748Z,969.38
2019-04-14T04:40:26.897Z,969.44
2019-04-14T04:41:27.563Z,969.43
2019-04-14T04:42:26.881Z,969.46
2019-04-14T04:43:27.668Z,969.46
2019-04-14T04:44:27.042Z,969.44
2019-04-14T04:45:27.778Z,969.47
2019-04-14T04:46:27.011Z,969.42
2019-04-14T04:47:27.346Z,969.45
2019-04-14T04:48:27.094Z,969.45
2019-04-14T04:49:28.998Z,969.44
2019-04-14T04:50:28.182Z,969.51
2019-04-14T04:51:27.220Z,969.51
2019-04-14T04:52:28.062Z,969.50
2019-04-14T04:53:27.309Z,969.51
2019-04-14T04:54:27.909Z,969.51
2019-04-14T04:55:28.540Z,969.53
2019-04-14T04:56:27.603Z,969.52
2019-04-14T04:57:28.446Z,969.52
2019-04-14T04:58:28.379Z,969.56
2019-04-14T04:59:27.792Z,969.55
2019-04-14T05:00:27.677Z,969.58
2019-04-14T05:01:27.645Z,969.59
2019-04-14T05:02:28.715Z,969.57
2019-04-14T05:03:27.810Z,969.56
2019-04-14T05:04:28.644Z,969.59
2019-04-14T05:05:27.817Z,969.59
2019-04-14T05:06:28.754Z,969.59
2019-04-14T05:07:27.908Z,969.61
2019-04-14T05:08:28.393Z,969.58
2019-04-14T05:09:27.986Z,969.62
2019-04-14T05:10:28.552Z,969.64
2019-04-14T05:11:28.072Z,969.68
2019-04-14T05:12:28.366Z,969.64
2019-04-14T05:13:29.137Z,969.68
2019-04-14T05:14:28.358Z,969.67
2019-04-14T05:15:29.105Z,969.69
2019-04-14T05:16:28.286Z,969.68
2019-04-14T05:17:28.324Z,969.70
2019-04-14T05:18:29.012Z,969.69
2019-04-14T05:19:33.128Z,969.73
2019-04-14T05:20:29.177Z,969.70
2019-04-14T05:21:28.496Z,969.68
2019-04-14T05:22:28.929Z,969.70
2019-04-14T05:23:29.825Z,969.71
2019-04-14T05:24:29.071Z,969.71
2019-04-14T05:25:29.621Z,969.69
2019-04-14T05:26:28.801Z,969.71
2019-04-14T05:27:29.753Z,969.73
2019-04-14T05:28:28.889Z,969.70
2019-04-14T05:29:29.734Z,969.70
2019-04-14T05:30:28.878Z,969.77
2019-04-14T05:31:29.458Z,969.76
2019-04-14T05:32:28.961Z,969.78
2019-04-14T05:33:29.342Z,969.77
2019-04-14T05:34:29.070Z,969.77
2019-04-14T05:35:29.161Z,969.80
2019-04-14T05:36:30.238Z,969.82
2019-04-14T05:37:29.263Z,969.81
2019-04-14T05:38:32.122Z,969.82
2019-04-14T05:39:29.279Z,969.85
2019-04-14T05:40:29.996Z,969.84
2019-04-14T05:41:29.345Z,969.85
2019-04-14T05:42:30.187Z,969.85
2019-04-14T05:43:38.658Z,969.86
2019-04-14T05:44:29.714Z,969.83
2019-04-14T05:45:30.554Z,969.81
2019-04-14T05:46:29.654Z,969.85
2019-04-14T05:47:30.538Z,969.87
2019-04-14T05:48:29.640Z,969.91
2019-04-14T05:49:38.166Z,969.89
2019-04-14T05:50:29.748Z,969.89
2019-04-14T05:51:30.537Z,969.91
2019-04-14T05:52:29.813Z,969.93
2019-04-14T05:53:30.535Z,969.92
2019-04-14T05:54:29.894Z,969.92
2019-04-14T05:55:30.601Z,969.93
2019-04-14T05:56:29.989Z,969.91
2019-04-14T05:57:30.609Z,969.95
2019-04-14T05:58:30.140Z,969.96
2019-04-14T05:59:30.759Z,969.98
2019-04-14T06:00:31.981Z,969.97
2019-04-14T06:01:30.200Z,970.00
2019-04-14T06:02:31.048Z,969.96
2019-04-14T06:03:30.280Z,970.03
2019-04-14T06:04:31.006Z,969.98
2019-04-14T06:05:31.692Z,970.00
2019-04-14T06:06:30.409Z,970.00
2019-04-14T06:07:30.452Z,970.01
2019-04-14T06:08:30.494Z,970.00
2019-04-14T06:09:30.535Z,969.98
2019-04-14T06:10:30.595Z,969.98
2019-04-14T06:11:30.628Z,970.04
2019-04-14T06:12:30.759Z,970.02
2019-04-14T06:13:30.705Z,970.01
2019-04-14T06:14:30.754Z,970.04
2019-04-14T06:15:30.832Z,970.07
2019-04-14T06:16:30.861Z,970.07
2019-04-14T06:17:30.883Z,970.07
2019-04-14T06:18:30.921Z,970.10
2019-04-14T06:19:37.069Z,970.09
2019-04-14T06:20:31.030Z,970.09
2019-04-14T06:21:31.068Z,970.11
2019-04-14T06:22:31.086Z,970.07
2019-04-14T06:23:31.132Z,970.10
2019-04-14T06:24:31.172Z,970.10
2019-04-14T06:25:31.244Z,970.10
2019-04-14T06:26:31.337Z,970.11
2019-04-14T06:27:31.305Z,970.12
2019-04-14T06:28:31.343Z,970.10
2019-04-14T06:29:31.387Z,970.15
2019-04-14T06:30:31.446Z,970.11
2019-04-14T06:31:31.495Z,970.13
2019-04-14T06:32:31.515Z,970.13
2019-04-14T06:33:31.579Z,970.10
2019-04-14T06:34:31.610Z,970.13
2019-04-14T06:35:31.636Z,970.13
2019-04-14T06:36:31.699Z,970.10
2019-04-14T06:37:31.731Z,970.13
2019-04-14T06:38:31.775Z,970.16
2019-04-14T06:39:31.826Z,970.12
2019-04-14T06:40:31.862Z,970.13
2019-04-14T06:41:31.943Z,970.18
2019-04-14T06:42:32.015Z,970.19
2019-04-14T06:43:31.986Z,970.12
2019-04-14T06:44:32.034Z,970.16
2019-04-14T06:45:32.063Z,970.14
2019-04-14T06:46:32.129Z,970.20
2019-04-14T06:47:32.212Z,970.19
2019-04-14T06:48:32.188Z,970.20
2019-04-14T06:49:32.318Z,970.15
2019-04-14T06:50:32.277Z,970.20
2019-04-14T06:51:32.348Z,970.16
2019-04-14T06:52:32.388Z,970.19
2019-04-14T06:53:32.402Z,970.18
2019-04-14T06:54:32.448Z,970.17
2019-04-14T06:55:32.500Z,970.16
2019-04-14T06:56:32.567Z,970.13
2019-04-14T06:57:32.598Z,970.10
2019-04-14T06:58:32.614Z,970.12
2019-04-14T06:59:32.663Z,970.09
2019-04-14T07:00:32.706Z,970.10
2019-04-14T07:01:32.738Z,970.12
2019-04-14T07:02:33.100Z,970.12
2019-04-14T07:03:32.900Z,970.11
2019-04-14T07:04:32.867Z,970.15
2019-04-14T07:05:32.916Z,970.09
2019-04-14T07:06:32.947Z,970.11
2019-04-14T07:07:33.011Z,970.12
2019-04-14T07:08:33.040Z,970.12
2019-04-14T07:09:33.077Z,970.10
2019-04-14T07:10:33.120Z,970.11
2019-04-14T07:11:33.171Z,970.11
2019-04-14T07:12:33.225Z,970.10
2019-04-14T07:13:33.250Z,970.09
2019-04-14T07:14:33.311Z,970.10
2019-04-14T07:15:33.341Z,970.10
2019-04-14T07:16:33.375Z,970.13
2019-04-14T07:17:33.486Z,970.15
2019-04-14T07:18:33.457Z,970.16
2019-04-14T07:19:33.534Z,970.17
2019-04-14T07:20:33.542Z,970.19
2019-04-14T07:21:33.596Z,970.22
2019-04-14T07:22:33.654Z,970.22
2019-04-14T07:23:33.676Z,970.23
2019-04-14T07:24:33.752Z,970.26
2019-04-14T07:25:33.766Z,970.25
2019-04-14T07:26:33.808Z,970.29
2019-04-14T07:27:33.856Z,970.29
2019-04-14T07:28:33.884Z,970.31
2019-04-14T07:29:33.943Z,970.32
2019-04-14T07:30:33.975Z,970.34
2019-04-14T07:31:34.036Z,970.31
2019-04-14T07:32:34.086Z,970.34
2019-04-14T07:33:34.095Z,970.31
2019-04-14T07:34:36.272Z,970.30
2019-04-14T07:35:34.185Z,970.31
2019-04-14T07:36:34.219Z,970.29
2019-04-14T07:37:34.283Z,970.30
2019-04-14T07:38:34.338Z,970.29
2019-04-14T07:39:34.355Z,970.27
2019-04-14T07:40:34.422Z,970.24
2019-04-14T07:41:34.448Z,970.26
2019-04-14T07:42:34.473Z,970.29
2019-04-14T07:43:34.537Z,970.33
2019-04-14T07:44:34.601Z,970.35
2019-04-14T07:45:34.600Z,970.31
2019-04-14T07:46:34.658Z,970.31
2019-04-14T07:47:34.720Z,970.37
2019-04-14T07:48:34.747Z,970.38
2019-04-14T07:49:34.787Z,970.36
2019-04-14T07:50:34.819Z,970.38
2019-04-14T07:51:34.865Z,970.38
2019-04-14T07:52:34.916Z,970.38
2019-04-14T07:53:34.960Z,970.34
2019-04-14T07:54:35.019Z,970.36
2019-04-14T07:55:35.033Z,970.39
2019-04-14T07:56:35.064Z,970.36
2019-04-14T07:57:35.112Z,970.36
2019-04-14T07:58:35.180Z,970.39
2019-04-14T07:59:35.204Z,970.37
2019-04-14T08:00:35.248Z,970.33
2019-04-14T08:01:35.278Z,970.40
2019-04-14T08:02:35.319Z,970.37
2019-04-14T08:03:35.388Z,970.35
2019-04-14T08:04:35.404Z,970.35
2019-04-14T08:05:35.448Z,970.35
2019-04-14T08:06:38.205Z,970.33
2019-04-14T08:07:35.532Z,970.33
2019-04-14T08:08:35.642Z,970.35
2019-04-14T08:09:35.612Z,970.36
2019-04-14T08:10:35.664Z,970.36
2019-04-14T08:11:35.702Z,970.34
2019-04-14T08:12:35.749Z,970.36
2019-04-14T08:13:35.825Z,970.33
2019-04-14T08:14:35.825Z,970.32
2019-04-14T08:15:35.887Z,970.30
2019-04-14T08:16:35.928Z,970.24
2019-04-14T08:17:35.956Z,970.28
2019-04-14T08:18:36.026Z,970.25
2019-04-14T08:19:36.098Z,970.29
2019-04-14T08:20:36.110Z,970.28
2019-04-14T08:21:36.123Z,970.29
2019-04-14T08:22:36.207Z,970.28
2019-04-14T08:23:36.221Z,970.29
2019-04-14T08:24:36.288Z,970.31
2019-04-14T08:25:36.300Z,970.31
2019-04-14T08:26:36.338Z,970.28
2019-04-14T08:27:36.395Z,970.32
2019-04-14T08:28:36.422Z,970.29
2019-04-14T08:29:36.571Z,970.32
2019-04-14T08:30:36.519Z,970.29
2019-04-14T08:31:36.559Z,970.29
2019-04-14T08:32:36.607Z,970.24
2019-04-14T08:33:36.646Z,970.27
2019-04-14T08:34:36.714Z,970.24
2019-04-14T08:35:36.752Z,970.19
2019-04-14T08:36:36.768Z,970.21
2019-04-14T08:37:36.808Z,970.21
2019-04-14T08:38:36.976Z,970.21
2019-04-14T08:39:36.942Z,970.20
2019-04-14T08:40:36.943Z,970.21
2019-04-14T08:41:36.995Z,970.24
2019-04-14T08:42:37.028Z,970.25
2019-04-14T08:43:37.072Z,970.26
2019-04-14T08:44:39.459Z,970.28
2019-04-14T08:45:37.588Z,970.26
2019-04-14T08:46:37.230Z,970.24
2019-04-14T08:47:37.249Z,970.26
2019-04-14T08:48:37.296Z,970.26
2019-04-14T08:49:37.334Z,970.25
2019-04-14T08:50:39.755Z,970.25
2019-04-14T08:51:37.442Z,970.28
2019-04-14T08:52:37.559Z,970.30
2019-04-14T08:53:37.506Z,970.32
2019-04-14T08:54:37.555Z,970.35
2019-04-14T08:55:37.612Z,970.41
2019-04-14T08:56:37.668Z,970.40
2019-04-14T08:57:37.705Z,970.38
2019-04-14T08:58:37.726Z,970.37
2019-04-14T08:59:37.789Z,970.34
2019-04-14T09:00:37.863Z,970.40
2019-04-14T09:01:37.880Z,970.32
2019-04-14T09:02:37.909Z,970.35
2019-04-14T09:03:37.960Z,970.31
2019-04-14T09:04:38.000Z,970.31
2019-04-14T09:05:38.074Z,970.32
2019-04-14T09:06:38.135Z,970.31
2019-04-14T09:07:38.130Z,970.27
2019-04-14T09:08:38.175Z,970.23
2019-04-14T09:09:38.226Z,970.24
2019-04-14T09:10:38.297Z,970.26
2019-04-14T09:11:38.318Z,970.25
2019-04-14T09:12:38.360Z,970.26
2019-04-14T09:13:38.409Z,970.27
2019-04-14T09:14:38.453Z,970.28
2019-04-14T09:15:38.521Z,970.24
2019-04-14T09:16:38.543Z,970.30
2019-04-14T09:17:38.678Z,970.31
2019-04-14T09:18:38.636Z,970.30
2019-04-14T09:19:38.684Z,970.29
2019-04-14T09:20:51.320Z,970.32
2019-04-14T09:21:38.770Z,970.35
2019-04-14T09:22:38.813Z,970.34
2019-04-14T09:23:38.867Z,970.32
2019-04-14T09:24:38.977Z,970.34
2019-04-14T09:25:38.970Z,970.36
2019-04-14T09:26:38.997Z,970.36
2019-04-14T09:27:39.045Z,970.36
2019-04-14T09:28:39.093Z,970.37
2019-04-14T09:29:39.149Z,970.32
2019-04-14T09:30:39.207Z,970.33
2019-04-14T09:31:39.316Z,970.33
2019-04-14T09:32:39.282Z,970.30
2019-04-14T09:33:39.316Z,970.32
2019-04-14T09:34:39.393Z,970.33
2019-04-14T09:35:39.430Z,970.38
2019-04-14T09:36:39.482Z,970.34
2019-04-14T09:37:39.501Z,970.40
2019-04-14T09:38:39.549Z,970.39
2019-04-14T09:39:39.605Z,970.35
2019-04-14T09:40:39.781Z,970.38
2019-04-14T09:41:39.678Z,970.43
2019-04-14T09:42:39.725Z,970.41
2019-04-14T09:43:39.781Z,970.43
2019-04-14T09:44:39.825Z,970.42
2019-04-14T09:45:39.908Z,970.43
2019-04-14T09:46:39.913Z,970.45
2019-04-14T09:47:39.964Z,970.45
2019-04-14T09:48:42.714Z,970.43
2019-04-14T09:49:40.049Z,970.44
2019-04-14T09:50:40.127Z,970.39
2019-04-14T09:51:40.130Z,970.37
2019-04-14T09:52:40.188Z,970.38
2019-04-14T09:53:40.238Z,970.38
2019-04-14T09:54:40.327Z,970.38
2019-04-14T09:55:40.333Z,970.36
2019-04-14T09:56:40.356Z,970.35
2019-04-14T09:57:40.445Z,970.32
2019-04-14T09:58:40.448Z,970.32
2019-04-14T09:59:40.494Z,970.38
2019-04-14T10:00:40.548Z,970.36
2019-04-14T10:01:40.666Z,970.39
2019-04-14T10:02:40.627Z,970.41
2019-04-14T10:03:40.678Z,970.45
2019-04-14T10:04:40.713Z,970.46
2019-04-14T10:05:40.763Z,970.43
2019-04-14T10:06:41.056Z,970.42
2019-04-14T10:07:40.891Z,970.46
2019-04-14T10:08:40.920Z,970.45
2019-04-14T10:09:40.944Z,970.49
2019-04-14T10:10:40.987Z,970.52
2019-04-14T10:11:48.668Z,970.54
2019-04-14T10:12:41.097Z,970.57
2019-04-14T10:13:41.127Z,970.55
2019-04-14T10:14:41.180Z,970.57
2019-04-14T10:15:41.267Z,970.59
2019-04-14T10:16:41.269Z,970.57
2019-04-14T10:17:41.326Z,970.56
2019-04-14T10:18:41.402Z,970.64
2019-04-14T10:19:41.393Z,970.64
2019-04-14T10:20:41.436Z,970.59
2019-04-14T10:21:41.483Z,970.64
2019-04-14T10:22:41.570Z,970.66
2019-04-14T10:23:41.567Z,970.65
2019-04-14T10:24:41.630Z,970.64
2019-04-14T10:25:41.660Z,970.67
2019-04-14T10:26:41.707Z,970.61
2019-04-14T10:27:41.778Z,970.68
2019-04-14T10:28:41.820Z,970.64
2019-04-14T10:29:41.866Z,970.69
2019-04-14T10:30:41.904Z,970.67
2019-04-14T10:31:41.930Z,970.72
2019-04-14T10:32:41.963Z,970.73
2019-04-14T10:33:42.079Z,970.76
2019-04-14T10:34:42.074Z,970.77
2019-04-14T10:35:42.111Z,970.74
2019-04-14T10:36:42.143Z,970.74
2019-04-14T10:37:42.201Z,970.77
2019-04-14T10:38:42.311Z,970.78
2019-04-14T10:39:42.286Z,970.72
2019-04-14T10:40:42.323Z,970.72
2019-04-14T10:41:42.364Z,970.73
2019-04-14T10:42:42.403Z,970.75
2019-04-14T10:43:42.471Z,970.74
2019-04-14T10:44:42.499Z,970.74
2019-04-14T10:45:42.649Z,970.74
2019-04-14T10:46:42.579Z,970.77
2019-04-14T10:47:42.618Z,970.76
2019-04-14T10:48:42.697Z,970.78
2019-04-14T10:49:42.734Z,970.78
2019-04-14T10:50:42.753Z,970.80
2019-04-14T10:51:42.802Z,970.76
2019-04-14T10:52:42.932Z,970.81
2019-04-14T10:53:42.921Z,970.81
2019-04-14T10:54:42.932Z,970.80
2019-04-14T10:55:42.975Z,970.76
2019-04-14T10:56:43.017Z,970.78
2019-04-14T10:57:43.067Z,970.79
2019-04-14T10:58:43.122Z,970.78
2019-04-14T10:59:43.221Z,970.76
2019-04-14T11:00:43.199Z,970.80
2019-04-14T11:01:43.224Z,970.77
2019-04-14T11:02:43.273Z,970.81
2019-04-14T11:03:43.325Z,970.84
2019-04-14T11:04:43.393Z,970.82
2019-04-14T11:05:43.415Z,970.83
2019-04-14T11:06:43.482Z,970.84
2019-04-14T11:07:43.504Z,970.83
2019-04-14T11:08:43.529Z,970.85
2019-04-14T11:09:43.615Z,970.86
2019-04-14T11:10:43.621Z,970.85
2019-04-14T11:11:43.664Z,970.84
2019-04-14T11:12:43.702Z,970.85
2019-04-14T11:13:43.759Z,970.83
2019-04-14T11:14:43.814Z,970.83
2019-04-14T11:15:43.832Z,970.79
2019-04-14T11:16:43.871Z,970.84
2019-04-14T11:17:43.943Z,970.81
2019-04-14T11:18:43.971Z,970.86
2019-04-14T11:19:44.053Z,970.84
2019-04-14T11:20:44.071Z,970.86
2019-04-14T11:21:44.087Z,970.85
2019-04-14T11:22:44.138Z,970.89
2019-04-14T11:23:44.263Z,970.88
2019-04-14T11:24:44.281Z,970.88
2019-04-14T11:25:44.269Z,970.94
2019-04-14T11:26:44.315Z,970.90
2019-04-14T11:27:44.348Z,970.89
2019-04-14T11:28:44.392Z,970.95
2019-04-14T11:29:44.519Z,970.92
2019-04-14T11:30:44.479Z,970.91
2019-04-14T11:31:44.521Z,970.92
2019-04-14T11:32:44.571Z,970.99
2019-04-14T11:33:44.620Z,970.95
2019-04-14T11:34:44.671Z,970.94
2019-04-14T11:35:44.710Z,970.90
2019-04-14T11:36:44.741Z,970.89
2019-04-14T11:37:44.786Z,970.90
2019-04-14T11:38:44.830Z,970.93
2019-04-14T11:39:44.868Z,970.92
2019-04-14T11:40:44.941Z,970.90
2019-04-14T11:41:44.957Z,970.93
2019-04-14T11:42:52.102Z,970.95
2019-04-14T11:43:45.092Z,970.95
2019-04-14T11:44:45.089Z,971.01
2019-04-14T11:45:45.153Z,971.01
2019-04-14T11:46:45.187Z,971.01
2019-04-14T11:47:45.217Z,971.03
2019-04-14T11:48:45.267Z,971.01
2019-04-14T11:49:45.325Z,971.02
2019-04-14T11:50:45.373Z,971.07
2019-04-14T11:51:54.605Z,971.06
2019-04-14T11:52:45.428Z,971.12
2019-04-14T11:53:45.490Z,971.14
2019-04-14T11:54:45.531Z,971.13
2019-04-14T11:55:45.651Z,971.10
2019-04-14T11:56:45.608Z,971.10
2019-04-14T11:57:45.658Z,971.11
2019-04-14T11:58:45.725Z,971.12
2019-04-14T11:59:45.743Z,971.17
2019-04-14T12:00:45.812Z,971.19
2019-04-14T12:01:45.839Z,971.16
2019-04-14T12:02:45.881Z,971.22
2019-04-14T12:03:45.916Z,971.16
2019-04-14T12:04:45.947Z,971.18
2019-04-14T12:05:46.030Z,971.18
2019-04-14T12:06:46.042Z,971.19
2019-04-14T12:07:46.088Z,971.17
2019-04-14T12:08:46.140Z,971.22
2019-04-14T12:09:46.170Z,971.23
2019-04-14T12:10:46.247Z,971.23
2019-04-14T12:11:46.247Z,971.26
2019-04-14T12:12:46.310Z,971.25
2019-04-14T12:13:46.339Z,971.29
2019-04-14T12:14:46.425Z,971.28
2019-04-14T12:15:46.472Z,971.29
2019-04-14T12:16:46.472Z,971.30
2019-04-14T12:17:46.506Z,971.30
2019-04-14T12:18:46.552Z,971.33
2019-04-14T12:19:46.609Z,971.28
2019-04-14T12:20:46.681Z,971.28
2019-04-14T12:21:46.690Z,971.31
2019-04-14T12:22:46.729Z,971.37
2019-04-14T12:23:46.778Z,971.37
2019-04-14T12:24:46.830Z,971.35
2019-04-14T12:25:46.885Z,971.42
2019-04-14T12:26:46.911Z,971.37
2019-04-14T12:27:46.946Z,971.39
2019-04-14T12:28:47.164Z,971.45
2019-04-14T12:29:47.947Z,971.45
2019-04-14T12:30:47.082Z,971.46
2019-04-14T12:31:47.128Z,971.49
2019-04-14T12:32:47.178Z,971.45
2019-04-14T12:33:47.194Z,971.49
2019-04-14T12:34:47.296Z,971.50
2019-04-14T12:35:47.335Z,971.49
2019-04-14T12:36:47.354Z,971.47
2019-04-14T12:37:47.370Z,971.51
2019-04-14T12:38:47.472Z,971.52
2019-04-14T12:39:47.478Z,971.54
2019-04-14T12:40:47.510Z,971.53
2019-04-14T12:41:47.570Z,971.54
2019-04-14T12:42:47.594Z,971.56
2019-04-14T12:43:47.621Z,971.58
2019-04-14T12:44:47.678Z,971.56
2019-04-14T12:45:47.718Z,971.60
2019-04-14T12:46:47.750Z,971.60
2019-04-14T12:47:47.832Z,971.63
2019-04-14T12:48:47.873Z,971.63
2019-04-14T12:49:47.882Z,971.63
2019-04-14T12:50:47.924Z,971.67
2019-04-14T12:51:47.962Z,971.68